Sanford, ME

8:11 PM EDT on October 01, 2014 (GMT -0400)
Sanford Regional | Change Station
CLOSE
Current Station
Airport
Location: Sanford,
Elevation: 243 ft
Nearby Weather Stations

Elev 243 ft 43.39 °N, 70.71 °W | Updated 16 minutes ago

Overcast
Overcast
57 °F
Feels Like 57 °F
N
5
Wind Variable Wind from NNE

Today
High -- | Low -- °F
--% Chance of Precip.
Yesterday
High -- | Low -- °F
Precip. -- in
6:40 AM 6:23 PM
First Quarter, 52% visible
Pressure 30.05 in
Visibility 10.0 miles
Clouds Overcast 2100 ft
Dew Point 52 °F
Humidity 82%
Rainfall 0.00 in
Snow Depth Not available.
UV 0 out of 12
Pollen .40 out of 12
Air Quality Not available.
Flu Activity Not available.
METAR KSFM 302355Z AUTO 03004KT 10SM OVC021 14/11 A3005 RMK AO1 10140 20140 401400110 52007

More Conditions Fewer Conditions

Pressure 30.05 in
Visibility 10.0 miles
Clouds Overcast 2100 ft
Dew Point 52 °F
Humidity 82%
Rainfall 0.00 in
Snow Depth Not available.
UV 0 out of 12
Pollen .40 out of 12
Air Quality Not available.
Flu Activity Not available.
METAR KSFM 302355Z AUTO 03004KT 10SM OVC021 14/11 A3005 RMK AO1 10140 20140 401400110 52007

More Conditions Fewer Conditions

10-Day Weather Forecast

Almanac

Astronomy

Oct. 01, 2014 Rise Set
Actual Time 6:40 AM EDT 6:23 PM EDT
Civil Twilight 6:11 AM EDT 6:52 PM EDT
Nautical Twilight 5:38 AM EDT 7:25 PM EDT
Astronomical Twilight 5:05 AM EDT 7:58 PM EDT
Moon 1:45 PM EDT (10/1) 11:45 PM EDT (10/1)
Length of Visible Light 12h 40m
Length of Day
11h 43m
Tomorrow will be 2m 56s shorter.
First Quarter, 52% of the Moon is Illuminated
Today
First Quarter
Oct 8
Full
Oct 15
Last Quarter
Oct 23
New
Oct 30
First Quarter

Today's Extremes

State Highs State Lows

Community

WunderPhotos

Upload Photos

1,758,097 photos uploaded!

WunderBlogs® & News

Nearby

Air Quality

  Air Quality AQ Index Pollutant
Wednesday Good
OZONE
Wednesday Good
PM2.5
Thursday Good
OZONE
Thursday Good
PM2.5
Friday Good
OZONE
Friday Good
PM2.5
Saturday Good
OZONE
Saturday Good
PM2.5

Snow Depth

Station Depth Elevation
No new snow has been reported.

Earthquake Activity

City Distance Mag. Time & Date
No recent earthquake activity has been reported nearby.
Minimum magnitude displayed is 2.5.

Coastal Water Temperatures

Place Temperature
Wells, ME 57.0 °F
Portland, ME 57.9 °F

Nearby Weather Stations